Sawyer International Airport Marquette US
ICAO: KSAW
IATA: SAW
Category: Medium
Scheduled Services: No

Elevation: 1221 ft
TransAlt. 18000 ft.

Airport Communications:
AWOS 3:118.375
MINNEAPOLIS CNTR:119.1
CTAF:119.975
GND:121.65
GREEN BAY RDO:123.6
TWR:119.975
UNICOM:122.7

KSAW Zoom In..

Runways:

(A) RW 01 length 12366 ft width 150 ft
ILS 110.10 / hdg 13

(B) RW 19 length 12366 ft width 150 ft
---- / hdg 193

Location; KSAW
Day. 23 / Time. 14.47 Zulu
* Altimeter: 29.72
* Temperature: -05° c. -23°f.
* Wind from: 350° Speed 23 kn.
Dewpoint: -06° c.
Visibility: 3/4 Statute Miles.
Clouds: Overcast 600 ft.
Conditions: Light Snow.

KSAW 231447Z 35023KT 3/4SM -SN OVC006 M05/M06 A2972


Wind From 350°
Speed 23 kn.

YouTube Music Video
 
jpsmedia.com for Web Design  worldairports.se 2018   terms of use